sensor_id;sensor_type;location;lat;lon;timestamp;P1;durP1;ratioP1;P2;durP2;ratioP2
58306;SDS011;44116;50.884;4.768;2023-02-15T00:00:09;55.1;;;30.2;;
58306;SDS011;44116;50.884;4.768;2023-02-15T00:02:08;54.5;;;30.1;;
58306;SDS011;44116;50.884;4.768;2023-02-15T00:04:08;50.6;;;28.4;;
58306;SDS011;44116;50.884;4.768;2023-02-15T00:06:07;44.7;;;26.9;;
58306;SDS011;44116;50.884;4.768;2023-02-15T00:08:06;51.2;;;28.8;;
58306;SDS011;44116;50.884;4.768;2023-02-15T00:10:07;52.8;;;28.2;;
58306;SDS011;44116;50.884;4.768;2023-02-15T00:12:06;49.4;;;28.0;;
58306;SDS011;44116;50.884;4.768;2023-02-15T00:14:06;49.6;;;28.3;;
58306;SDS011;44116;50.884;4.768;2023-02-15T00:16:06;52.2;;;29.3;;
58306;SDS011;44116;50.884;4.768;2023-02-15T00:18:04;48.4;;;28.0;;
58306;SDS011;44116;50.884;4.768;2023-02-15T00:20:04;45.3;;;26.2;;
58306;SDS011;44116;50.884;4.768;2023-02-15T00:22:04;45.2;;;26.7;;
58306;SDS011;44116;50.884;4.768;2023-02-15T00:24:05;47.7;;;26.4;;
58306;SDS011;44116;50.884;4.768;2023-02-15T00:26:04;46.7;;;26.7;;
58306;SDS011;44116;50.884;4.768;2023-02-15T00:28:01;50.4;;;27.8;;
58306;SDS011;44116;50.884;4.768;2023-02-15T00:30:01;49.2;;;27.9;;
58306;SDS011;44116;50.884;4.768;2023-02-15T00:32:01;47.3;;;27.2;;
58306;SDS011;44116;50.884;4.768;2023-02-15T00:37:59;48.7;;;27.6;;
58306;SDS011;44116;50.884;4.768;2023-02-15T00:39:59;52.7;;;28.1;;
58306;SDS011;44116;50.884;4.768;2023-02-15T00:41:58;52.1;;;29.1;;
58306;SDS011;44116;50.884;4.768;2023-02-15T00:43:58;55.0;;;29.2;;
58306;SDS011;44116;50.884;4.768;2023-02-15T00:45:58;56.6;;;30.3;;
58306;SDS011;44116;50.884;4.768;2023-02-15T00:47:57;50.9;;;28.9;;
58306;SDS011;44116;50.884;4.768;2023-02-15T00:49:56;47.3;;;28.6;;
58306;SDS011;44116;50.884;4.768;2023-02-15T00:51:56;52.6;;;28.4;;
58306;SDS011;44116;50.884;4.768;2023-02-15T00:53:55;55.3;;;29.3;;
58306;SDS011;44116;50.884;4.768;2023-02-15T00:55:55;52.5;;;29.4;;
58306;SDS011;44116;50.884;4.768;2023-02-15T00:57:54;50.2;;;27.4;;
58306;SDS011;44116;50.884;4.768;2023-02-15T00:59:54;54.2;;;29.5;;
58306;SDS011;44116;50.884;4.768;2023-02-15T01:01:53;55.2;;;29.2;;
58306;SDS011;44116;50.884;4.768;2023-02-15T01:03:53;52.0;;;28.8;;
58306;SDS011;44116;50.884;4.768;2023-02-15T01:05:52;52.4;;;28.6;;
58306;SDS011;44116;50.884;4.768;2023-02-15T01:07:52;51.3;;;28.3;;
58306;SDS011;44116;50.884;4.768;2023-02-15T01:09:51;50.9;;;28.4;;
58306;SDS011;44116;50.884;4.768;2023-02-15T01:11:51;53.7;;;28.5;;
58306;SDS011;44116;50.884;4.768;2023-02-15T01:13:53;53.3;;;28.4;;
58306;SDS011;44116;50.884;4.768;2023-02-15T01:15:53;55.7;;;29.6;;
58306;SDS011;44116;50.884;4.768;2023-02-15T01:17:50;54.9;;;29.7;;
58306;SDS011;44116;50.884;4.768;2023-02-15T01:19:49;46.1;;;27.2;;
58306;SDS011;44116;50.884;4.768;2023-02-15T01:21:49;51.1;;;28.3;;
58306;SDS011;44116;50.884;4.768;2023-02-15T01:23:48;54.3;;;29.6;;
58306;SDS011;44116;50.884;4.768;2023-02-15T01:25:48;54.0;;;31.0;;
58306;SDS011;44116;50.884;4.768;2023-02-15T01:27:47;51.8;;;28.8;;
58306;SDS011;44116;50.884;4.768;2023-02-15T01:29:47;54.9;;;30.0;;
58306;SDS011;44116;50.884;4.768;2023-02-15T01:31:46;52.2;;;29.9;;
58306;SDS011;44116;50.884;4.768;2023-02-15T01:33:48;54.3;;;29.7;;
58306;SDS011;44116;50.884;4.768;2023-02-15T01:35:46;59.4;;;30.2;;
58306;SDS011;44116;50.884;4.768;2023-02-15T01:37:45;56.7;;;29.5;;
58306;SDS011;44116;50.884;4.768;2023-02-15T01:39:44;48.0;;;27.5;;
58306;SDS011;44116;50.884;4.768;2023-02-15T01:41:44;54.4;;;29.8;;
58306;SDS011;44116;50.884;4.768;2023-02-15T01:43:45;57.1;;;30.3;;
58306;SDS011;44116;50.884;4.768;2023-02-15T01:45:46;54.5;;;29.1;;
58306;SDS011;44116;50.884;4.768;2023-02-15T01:47:46;57.3;;;30.9;;
58306;SDS011;44116;50.884;4.768;2023-02-15T01:49:44;54.6;;;29.3;;
58306;SDS011;44116;50.884;4.768;2023-02-15T01:51:44;49.3;;;28.5;;
58306;SDS011;44116;50.884;4.768;2023-02-15T01:53:43;53.0;;;29.2;;
58306;SDS011;44116;50.884;4.768;2023-02-15T01:55:45;49.2;;;29.7;;
58306;SDS011;44116;50.884;4.768;2023-02-15T01:57:41;50.4;;;28.6;;
58306;SDS011;44116;50.884;4.768;2023-02-15T01:59:43;48.8;;;28.4;;
58306;SDS011;44116;50.884;4.768;2023-02-15T02:01:40;52.9;;;28.6;;
58306;SDS011;44116;50.884;4.768;2023-02-15T02:03:46;50.1;;;28.1;;
58306;SDS011;44116;50.884;4.768;2023-02-15T02:05:39;50.3;;;28.8;;
58306;SDS011;44116;50.884;4.768;2023-02-15T02:07:41;48.2;;;27.7;;
58306;SDS011;44116;50.884;4.768;2023-02-15T02:09:37;51.3;;;28.4;;
58306;SDS011;44116;50.884;4.768;2023-02-15T02:11:39;48.0;;;27.8;;
58306;SDS011;44116;50.884;4.768;2023-02-15T02:13:37;53.1;;;29.0;;
58306;SDS011;44116;50.884;4.768;2023-02-15T02:15:43;49.3;;;28.1;;
58306;SDS011;44116;50.884;4.768;2023-02-15T02:17:42;51.1;;;28.0;;
58306;SDS011;44116;50.884;4.768;2023-02-15T02:19:56;52.0;;;29.6;;
58306;SDS011;44116;50.884;4.768;2023-02-15T02:23:43;52.4;;;29.0;;
58306;SDS011;44116;50.884;4.768;2023-02-15T02:25:48;52.7;;;28.4;;
58306;SDS011;44116;50.884;4.768;2023-02-15T02:27:37;48.1;;;27.4;;
58306;SDS011;44116;50.884;4.768;2023-02-15T02:31:44;46.9;;;28.0;;
58306;SDS011;44116;50.884;4.768;2023-02-15T02:35:38;49.9;;;27.3;;
58306;SDS011;44116;50.884;4.768;2023-02-15T02:37:37;46.2;;;26.9;;
58306;SDS011;44116;50.884;4.768;2023-02-15T02:39:36;50.0;;;27.7;;
58306;SDS011;44116;50.884;4.768;2023-02-15T02:41:33;52.0;;;28.8;;
58306;SDS011;44116;50.884;4.768;2023-02-15T02:43:34;49.5;;;28.6;;
58306;SDS011;44116;50.884;4.768;2023-02-15T02:45:35;51.9;;;29.4;;
58306;SDS011;44116;50.884;4.768;2023-02-15T02:47:32;48.0;;;28.1;;
58306;SDS011;44116;50.884;4.768;2023-02-15T02:49:30;51.9;;;28.4;;
58306;SDS011;44116;50.884;4.768;2023-02-15T02:51:27;50.6;;;28.9;;
58306;SDS011;44116;50.884;4.768;2023-02-15T02:53:30;50.9;;;28.5;;
58306;SDS011;44116;50.884;4.768;2023-02-15T02:55:30;51.0;;;27.3;;
58306;SDS011;44116;50.884;4.768;2023-02-15T02:57:27;48.2;;;27.9;;
58306;SDS011;44116;50.884;4.768;2023-02-15T02:59:29;48.7;;;27.0;;
58306;SDS011;44116;50.884;4.768;2023-02-15T03:01:29;46.5;;;26.3;;
58306;SDS011;44116;50.884;4.768;2023-02-15T03:03:27;46.0;;;26.4;;
58306;SDS011;44116;50.884;4.768;2023-02-15T03:05:26;48.1;;;27.1;;
58306;SDS011;44116;50.884;4.768;2023-02-15T03:07:26;47.1;;;26.2;;
58306;SDS011;44116;50.884;4.768;2023-02-15T03:09:26;48.4;;;28.1;;
58306;SDS011;44116;50.884;4.768;2023-02-15T03:11:22;48.9;;;27.4;;
58306;SDS011;44116;50.884;4.768;2023-02-15T03:13:22;45.0;;;27.6;;
58306;SDS011;44116;50.884;4.768;2023-02-15T03:15:25;44.8;;;27.0;;
58306;SDS011;44116;50.884;4.768;2023-02-15T03:17:22;50.4;;;27.9;;
58306;SDS011;44116;50.884;4.768;2023-02-15T03:19:24;49.1;;;28.0;;
58306;SDS011;44116;50.884;4.768;2023-02-15T03:21:21;47.3;;;27.4;;
58306;SDS011;44116;50.884;4.768;2023-02-15T03:23:22;47.9;;;26.9;;
58306;SDS011;44116;50.884;4.768;2023-02-15T03:25:21;46.2;;;26.3;;
58306;SDS011;44116;50.884;4.768;2023-02-15T03:27:23;50.1;;;28.6;;
58306;SDS011;44116;50.884;4.768;2023-02-15T03:29:20;48.2;;;27.2;;
58306;SDS011;44116;50.884;4.768;2023-02-15T03:31:19;49.9;;;27.5;;
58306;SDS011;44116;50.884;4.768;2023-02-15T03:33:18;48.6;;;26.8;;
58306;SDS011;44116;50.884;4.768;2023-02-15T03:35:18;48.3;;;26.9;;
58306;SDS011;44116;50.884;4.768;2023-02-15T03:37:23;48.5;;;27.3;;
58306;SDS011;44116;50.884;4.768;2023-02-15T03:39:20;45.4;;;26.2;;
58306;SDS011;44116;50.884;4.768;2023-02-15T03:41:17;49.8;;;28.7;;
58306;SDS011;44116;50.884;4.768;2023-02-15T03:43:19;49.6;;;28.1;;
58306;SDS011;44116;50.884;4.768;2023-02-15T03:45:18;48.7;;;27.2;;
58306;SDS011;44116;50.884;4.768;2023-02-15T03:47:17;49.7;;;28.3;;
58306;SDS011;44116;50.884;4.768;2023-02-15T03:49:19;52.0;;;27.5;;
58306;SDS011;44116;50.884;4.768;2023-02-15T03:51:17;47.7;;;27.2;;
58306;SDS011;44116;50.884;4.768;2023-02-15T03:53:15;46.7;;;26.8;;
58306;SDS011;44116;50.884;4.768;2023-02-15T03:55:11;45.5;;;26.6;;
58306;SDS011;44116;50.884;4.768;2023-02-15T03:57:14;46.0;;;26.7;;
58306;SDS011;44116;50.884;4.768;2023-02-15T03:59:11;47.4;;;27.2;;
58306;SDS011;44116;50.884;4.768;2023-02-15T04:01:13;45.3;;;25.7;;
58306;SDS011;44116;50.884;4.768;2023-02-15T04:03:20;44.5;;;26.0;;
58306;SDS011;44116;50.884;4.768;2023-02-15T04:05:09;47.8;;;27.2;;
58306;SDS011;44116;50.884;4.768;2023-02-15T04:07:09;47.1;;;27.9;;
58306;SDS011;44116;50.884;4.768;2023-02-15T04:09:08;51.1;;;28.1;;
58306;SDS011;44116;50.884;4.768;2023-02-15T04:11:08;46.2;;;27.2;;
58306;SDS011;44116;50.884;4.768;2023-02-15T04:13:07;47.1;;;26.7;;
58306;SDS011;44116;50.884;4.768;2023-02-15T04:15:08;49.6;;;27.1;;
58306;SDS011;44116;50.884;4.768;2023-02-15T04:17:07;54.7;;;30.0;;
58306;SDS011;44116;50.884;4.768;2023-02-15T04:19:05;50.1;;;28.9;;
58306;SDS011;44116;50.884;4.768;2023-02-15T04:21:05;49.9;;;28.0;;
58306;SDS011;44116;50.884;4.768;2023-02-15T04:23:05;46.1;;;26.6;;
58306;SDS011;44116;50.884;4.768;2023-02-15T04:25:05;49.3;;;27.7;;
58306;SDS011;44116;50.884;4.768;2023-02-15T04:29:03;50.2;;;28.1;;
58306;SDS011;44116;50.884;4.768;2023-02-15T04:31:02;50.7;;;28.3;;
58306;SDS011;44116;50.884;4.768;2023-02-15T04:33:02;51.1;;;29.0;;
58306;SDS011;44116;50.884;4.768;2023-02-15T04:35:02;49.2;;;28.2;;
58306;SDS011;44116;50.884;4.768;2023-02-15T04:37:01;49.6;;;27.5;;
58306;SDS011;44116;50.884;4.768;2023-02-15T04:39:00;50.7;;;29.0;;
58306;SDS011;44116;50.884;4.768;2023-02-15T04:41:00;49.3;;;27.7;;
58306;SDS011;44116;50.884;4.768;2023-02-15T04:42:59;50.1;;;27.0;;
58306;SDS011;44116;50.884;4.768;2023-02-15T04:44:59;50.4;;;28.1;;
58306;SDS011;44116;50.884;4.768;2023-02-15T04:46:58;49.9;;;28.3;;
58306;SDS011;44116;50.884;4.768;2023-02-15T04:48:58;48.6;;;28.1;;
58306;SDS011;44116;50.884;4.768;2023-02-15T04:50:57;51.3;;;28.2;;
58306;SDS011;44116;50.884;4.768;2023-02-15T04:52:57;49.6;;;28.6;;
58306;SDS011;44116;50.884;4.768;2023-02-15T04:54:56;47.4;;;28.8;;
58306;SDS011;44116;50.884;4.768;2023-02-15T04:56:56;48.7;;;27.5;;
58306;SDS011;44116;50.884;4.768;2023-02-15T04:58:55;48.2;;;27.7;;
58306;SDS011;44116;50.884;4.768;2023-02-15T05:00:55;49.4;;;27.4;;
58306;SDS011;44116;50.884;4.768;2023-02-15T05:02:54;49.4;;;27.8;;
58306;SDS011;44116;50.884;4.768;2023-02-15T05:04:54;50.1;;;27.1;;
58306;SDS011;44116;50.884;4.768;2023-02-15T05:06:53;50.7;;;28.4;;
58306;SDS011;44116;50.884;4.768;2023-02-15T05:08:53;45.7;;;26.9;;
58306;SDS011;44116;50.884;4.768;2023-02-15T05:10:52;51.3;;;30.6;;
58306;SDS011;44116;50.884;4.768;2023-02-15T05:12:52;49.3;;;28.0;;
58306;SDS011;44116;50.884;4.768;2023-02-15T05:14:51;45.9;;;27.4;;
58306;SDS011;44116;50.884;4.768;2023-02-15T05:16:51;46.5;;;28.0;;
58306;SDS011;44116;50.884;4.768;2023-02-15T05:18:50;50.7;;;27.9;;
58306;SDS011;44116;50.884;4.768;2023-02-15T05:20:49;48.6;;;26.8;;
58306;SDS011;44116;50.884;4.768;2023-02-15T05:22:52;52.5;;;28.5;;
58306;SDS011;44116;50.884;4.768;2023-02-15T05:24:49;48.6;;;27.5;;
58306;SDS011;44116;50.884;4.768;2023-02-15T05:26:48;48.4;;;26.6;;
58306;SDS011;44116;50.884;4.768;2023-02-15T05:28:47;47.9;;;27.6;;
58306;SDS011;44116;50.884;4.768;2023-02-15T05:30:47;50.7;;;28.3;;
58306;SDS011;44116;50.884;4.768;2023-02-15T05:32:46;51.8;;;29.0;;
58306;SDS011;44116;50.884;4.768;2023-02-15T05:34:46;53.1;;;28.3;;
58306;SDS011;44116;50.884;4.768;2023-02-15T05:36:45;52.0;;;28.9;;
58306;SDS011;44116;50.884;4.768;2023-02-15T05:38:45;51.3;;;28.8;;
58306;SDS011;44116;50.884;4.768;2023-02-15T05:40:44;51.9;;;27.4;;
58306;SDS011;44116;50.884;4.768;2023-02-15T05:42:44;48.7;;;27.7;;
58306;SDS011;44116;50.884;4.768;2023-02-15T05:44:43;48.8;;;27.4;;
58306;SDS011;44116;50.884;4.768;2023-02-15T05:46:43;50.3;;;28.0;;
58306;SDS011;44116;50.884;4.768;2023-02-15T05:48:42;49.3;;;27.9;;
58306;SDS011;44116;50.884;4.768;2023-02-15T05:50:42;50.9;;;28.2;;
58306;SDS011;44116;50.884;4.768;2023-02-15T05:52:41;50.3;;;27.5;;
58306;SDS011;44116;50.884;4.768;2023-02-15T05:54:40;52.9;;;28.1;;
58306;SDS011;44116;50.884;4.768;2023-02-15T05:56:40;52.5;;;28.6;;
58306;SDS011;44116;50.884;4.768;2023-02-15T05:58:40;49.3;;;27.9;;
58306;SDS011;44116;50.884;4.768;2023-02-15T06:00:39;46.5;;;27.0;;
58306;SDS011;44116;50.884;4.768;2023-02-15T06:02:38;52.3;;;29.7;;
58306;SDS011;44116;50.884;4.768;2023-02-15T06:04:38;51.8;;;27.7;;
58306;SDS011;44116;50.884;4.768;2023-02-15T06:06:37;49.2;;;27.5;;
58306;SDS011;44116;50.884;4.768;2023-02-15T06:08:37;47.3;;;27.8;;
58306;SDS011;44116;50.884;4.768;2023-02-15T06:10:36;45.9;;;27.1;;
58306;SDS011;44116;50.884;4.768;2023-02-15T06:12:36;51.7;;;27.5;;
58306;SDS011;44116;50.884;4.768;2023-02-15T06:14:35;51.7;;;27.8;;
58306;SDS011;44116;50.884;4.768;2023-02-15T06:16:35;49.5;;;27.7;;
58306;SDS011;44116;50.884;4.768;2023-02-15T06:18:34;47.8;;;27.2;;
58306;SDS011;44116;50.884;4.768;2023-02-15T06:20:33;49.9;;;28.3;;
58306;SDS011;44116;50.884;4.768;2023-02-15T06:22:33;53.6;;;28.1;;
58306;SDS011;44116;50.884;4.768;2023-02-15T06:24:33;48.7;;;27.5;;
58306;SDS011;44116;50.884;4.768;2023-02-15T06:26:32;53.3;;;29.7;;
58306;SDS011;44116;50.884;4.768;2023-02-15T06:28:31;51.1;;;27.8;;
58306;SDS011;44116;50.884;4.768;2023-02-15T06:30:31;53.6;;;28.3;;
58306;SDS011;44116;50.884;4.768;2023-02-15T06:32:30;49.9;;;27.7;;
58306;SDS011;44116;50.884;4.768;2023-02-15T06:34:30;50.5;;;28.6;;
58306;SDS011;44116;50.884;4.768;2023-02-15T06:36:30;50.2;;;28.1;;
58306;SDS011;44116;50.884;4.768;2023-02-15T06:38:29;49.5;;;26.9;;
58306;SDS011;44116;50.884;4.768;2023-02-15T06:40:28;53.8;;;27.6;;
58306;SDS011;44116;50.884;4.768;2023-02-15T06:42:28;50.9;;;27.0;;
58306;SDS011;44116;50.884;4.768;2023-02-15T06:44:27;52.8;;;27.5;;
58306;SDS011;44116;50.884;4.768;2023-02-15T06:46:27;48.2;;;26.6;;
58306;SDS011;44116;50.884;4.768;2023-02-15T06:48:26;50.0;;;27.4;;
58306;SDS011;44116;50.884;4.768;2023-02-15T06:50:25;50.0;;;27.6;;
58306;SDS011;44116;50.884;4.768;2023-02-15T06:52:25;50.2;;;27.3;;
58306;SDS011;44116;50.884;4.768;2023-02-15T06:54:24;52.0;;;28.4;;
58306;SDS011;44116;50.884;4.768;2023-02-15T06:56:24;52.0;;;28.6;;
58306;SDS011;44116;50.884;4.768;2023-02-15T06:58:23;52.4;;;28.8;;
58306;SDS011;44116;50.884;4.768;2023-02-15T07:00:23;50.8;;;27.7;;
58306;SDS011;44116;50.884;4.768;2023-02-15T07:02:22;46.2;;;27.0;;
58306;SDS011;44116;50.884;4.768;2023-02-15T07:06:21;48.0;;;25.9;;
58306;SDS011;44116;50.884;4.768;2023-02-15T07:08:21;48.4;;;26.2;;
58306;SDS011;44116;50.884;4.768;2023-02-15T07:10:20;47.4;;;25.9;;
58306;SDS011;44116;50.884;4.768;2023-02-15T07:12:20;51.1;;;28.0;;
58306;SDS011;44116;50.884;4.768;2023-02-15T07:14:19;49.5;;;27.3;;
58306;SDS011;44116;50.884;4.768;2023-02-15T07:16:19;50.6;;;28.0;;
58306;SDS011;44116;50.884;4.768;2023-02-15T07:18:18;47.8;;;26.6;;
58306;SDS011;44116;50.884;4.768;2023-02-15T07:20:20;49.2;;;26.8;;
58306;SDS011;44116;50.884;4.768;2023-02-15T07:22:17;51.0;;;27.3;;
58306;SDS011;44116;50.884;4.768;2023-02-15T07:24:17;50.2;;;27.5;;
58306;SDS011;44116;50.884;4.768;2023-02-15T07:26:16;48.6;;;26.8;;
58306;SDS011;44116;50.884;4.768;2023-02-15T07:28:15;48.4;;;26.1;;
58306;SDS011;44116;50.884;4.768;2023-02-15T07:30:16;47.2;;;26.0;;
58306;SDS011;44116;50.884;4.768;2023-02-15T07:32:14;47.9;;;26.3;;
58306;SDS011;44116;50.884;4.768;2023-02-15T07:34:14;46.5;;;26.0;;
58306;SDS011;44116;50.884;4.768;2023-02-15T07:36:14;50.2;;;26.7;;
58306;SDS011;44116;50.884;4.768;2023-02-15T07:38:13;47.6;;;26.6;;
58306;SDS011;44116;50.884;4.768;2023-02-15T07:40:12;52.4;;;28.4;;
58306;SDS011;44116;50.884;4.768;2023-02-15T07:44:12;48.2;;;27.0;;
58306;SDS011;44116;50.884;4.768;2023-02-15T07:46:12;52.3;;;27.8;;
58306;SDS011;44116;50.884;4.768;2023-02-15T07:48:10;50.5;;;27.3;;
58306;SDS011;44116;50.884;4.768;2023-02-15T07:50:09;49.4;;;27.9;;
58306;SDS011;44116;50.884;4.768;2023-02-15T07:52:09;52.5;;;27.7;;
58306;SDS011;44116;50.884;4.768;2023-02-15T07:54:08;51.6;;;26.8;;
58306;SDS011;44116;50.884;4.768;2023-02-15T07:56:11;49.4;;;26.7;;
58306;SDS011;44116;50.884;4.768;2023-02-15T07:58:07;49.1;;;27.2;;
58306;SDS011;44116;50.884;4.768;2023-02-15T08:00:07;44.3;;;25.0;;
58306;SDS011;44116;50.884;4.768;2023-02-15T08:02:09;47.2;;;26.1;;
58306;SDS011;44116;50.884;4.768;2023-02-15T08:04:07;47.6;;;27.0;;
58306;SDS011;44116;50.884;4.768;2023-02-15T08:06:06;48.4;;;26.9;;
58306;SDS011;44116;50.884;4.768;2023-02-15T08:08:05;51.5;;;27.3;;
58306;SDS011;44116;50.884;4.768;2023-02-15T08:10:05;51.2;;;27.8;;
58306;SDS011;44116;50.884;4.768;2023-02-15T08:12:04;49.1;;;27.3;;
58306;SDS011;44116;50.884;4.768;2023-02-15T08:14:05;52.3;;;28.8;;
58306;SDS011;44116;50.884;4.768;2023-02-15T08:16:03;53.8;;;28.9;;
58306;SDS011;44116;50.884;4.768;2023-02-15T08:18:02;52.2;;;28.2;;
58306;SDS011;44116;50.884;4.768;2023-02-15T08:20:02;51.1;;;28.1;;
58306;SDS011;44116;50.884;4.768;2023-02-15T08:22:04;51.4;;;27.5;;
58306;SDS011;44116;50.884;4.768;2023-02-15T08:24:02;54.2;;;28.5;;
58306;SDS011;44116;50.884;4.768;2023-02-15T08:26:00;51.6;;;29.4;;
58306;SDS011;44116;50.884;4.768;2023-02-15T08:28:00;52.6;;;29.0;;
58306;SDS011;44116;50.884;4.768;2023-02-15T08:29:59;52.3;;;28.0;;
58306;SDS011;44116;50.884;4.768;2023-02-15T08:32:02;52.6;;;27.0;;
58306;SDS011;44116;50.884;4.768;2023-02-15T08:33:59;49.4;;;28.2;;
58306;SDS011;44116;50.884;4.768;2023-02-15T08:36:02;49.1;;;26.7;;
58306;SDS011;44116;50.884;4.768;2023-02-15T08:37:57;49.8;;;26.8;;
58306;SDS011;44116;50.884;4.768;2023-02-15T08:39:57;49.1;;;27.0;;
58306;SDS011;44116;50.884;4.768;2023-02-15T08:41:56;48.5;;;26.8;;
58306;SDS011;44116;50.884;4.768;2023-02-15T08:43:57;50.2;;;26.6;;
58306;SDS011;44116;50.884;4.768;2023-02-15T08:45:55;47.5;;;26.2;;
58306;SDS011;44116;50.884;4.768;2023-02-15T08:47:55;46.3;;;25.0;;
58306;SDS011;44116;50.884;4.768;2023-02-15T08:49:54;45.3;;;26.5;;
58306;SDS011;44116;50.884;4.768;2023-02-15T08:51:54;50.8;;;27.0;;
58306;SDS011;44116;50.884;4.768;2023-02-15T08:53:54;47.7;;;25.7;;
58306;SDS011;44116;50.884;4.768;2023-02-15T08:55:56;46.2;;;24.8;;
58306;SDS011;44116;50.884;4.768;2023-02-15T08:57:52;44.8;;;25.8;;
58306;SDS011;44116;50.884;4.768;2023-02-15T08:59:52;45.2;;;24.8;;
58306;SDS011;44116;50.884;4.768;2023-02-15T09:01:52;45.4;;;25.0;;
58306;SDS011;44116;50.884;4.768;2023-02-15T09:03:55;46.1;;;25.2;;
58306;SDS011;44116;50.884;4.768;2023-02-15T09:05:50;44.3;;;24.5;;
58306;SDS011;44116;50.884;4.768;2023-02-15T09:07:50;44.7;;;25.0;;
58306;SDS011;44116;50.884;4.768;2023-02-15T09:09:49;45.4;;;24.7;;
58306;SDS011;44116;50.884;4.768;2023-02-15T09:11:51;44.7;;;24.1;;
58306;SDS011;44116;50.884;4.768;2023-02-15T09:13:49;42.8;;;25.0;;
58306;SDS011;44116;50.884;4.768;2023-02-15T09:17:47;43.2;;;24.0;;
58306;SDS011;44116;50.884;4.768;2023-02-15T09:19:47;43.2;;;24.8;;
58306;SDS011;44116;50.884;4.768;2023-02-15T09:21:47;43.9;;;24.5;;
58306;SDS011;44116;50.884;4.768;2023-02-15T09:23:48;45.0;;;24.9;;
58306;SDS011;44116;50.884;4.768;2023-02-15T09:27:45;45.3;;;25.6;;
58306;SDS011;44116;50.884;4.768;2023-02-15T09:29:45;42.0;;;24.8;;
58306;SDS011;44116;50.884;4.768;2023-02-15T09:33:45;42.4;;;24.4;;
58306;SDS011;44116;50.884;4.768;2023-02-15T09:35:43;43.1;;;24.5;;
58306;SDS011;44116;50.884;4.768;2023-02-15T09:37:43;42.0;;;25.4;;
58306;SDS011;44116;50.884;4.768;2023-02-15T09:39:43;44.4;;;24.3;;
58306;SDS011;44116;50.884;4.768;2023-02-15T09:42:04;45.3;;;26.0;;
58306;SDS011;44116;50.884;4.768;2023-02-15T09:43:48;46.7;;;25.3;;
58306;SDS011;44116;50.884;4.768;2023-02-15T09:45:52;43.6;;;25.0;;
58306;SDS011;44116;50.884;4.768;2023-02-15T09:49:45;46.7;;;25.5;;
58306;SDS011;44116;50.884;4.768;2023-02-15T09:51:52;46.3;;;24.9;;
58306;SDS011;44116;50.884;4.768;2023-02-15T09:53:53;40.6;;;24.7;;
58306;SDS011;44116;50.884;4.768;2023-02-15T09:55:48;41.4;;;24.2;;
58306;SDS011;44116;50.884;4.768;2023-02-15T09:57:47;41.4;;;24.5;;
58306;SDS011;44116;50.884;4.768;2023-02-15T09:59:49;45.3;;;25.7;;
58306;SDS011;44116;50.884;4.768;2023-02-15T10:01:45;42.9;;;23.8;;
58306;SDS011;44116;50.884;4.768;2023-02-15T10:03:46;39.8;;;22.8;;
58306;SDS011;44116;50.884;4.768;2023-02-15T10:05:46;39.5;;;22.6;;
58306;SDS011;44116;50.884;4.768;2023-02-15T10:07:52;38.6;;;22.9;;
58306;SDS011;44116;50.884;4.768;2023-02-15T10:09:45;38.7;;;22.2;;
58306;SDS011;44116;50.884;4.768;2023-02-15T10:11:49;40.1;;;23.1;;
58306;SDS011;44116;50.884;4.768;2023-02-15T10:13:42;39.6;;;22.7;;
58306;SDS011;44116;50.884;4.768;2023-02-15T10:15:46;39.9;;;22.4;;
58306;SDS011;44116;50.884;4.768;2023-02-15T10:17:45;38.3;;;21.7;;
58306;SDS011;44116;50.884;4.768;2023-02-15T10:19:40;39.2;;;23.3;;
58306;SDS011;44116;50.884;4.768;2023-02-15T10:21:44;39.9;;;22.3;;
58306;SDS011;44116;50.884;4.768;2023-02-15T10:23:46;42.0;;;23.2;;
58306;SDS011;44116;50.884;4.768;2023-02-15T10:25:40;43.0;;;23.0;;
58306;SDS011;44116;50.884;4.768;2023-02-15T10:27:36;36.5;;;22.4;;
58306;SDS011;44116;50.884;4.768;2023-02-15T10:29:35;35.9;;;20.9;;
58306;SDS011;44116;50.884;4.768;2023-02-15T10:33:38;38.2;;;21.8;;
58306;SDS011;44116;50.884;4.768;2023-02-15T10:35:37;40.5;;;22.0;;
58306;SDS011;44116;50.884;4.768;2023-02-15T10:37:44;36.7;;;20.3;;
58306;SDS011;44116;50.884;4.768;2023-02-15T10:39:38;34.9;;;19.8;;
58306;SDS011;44116;50.884;4.768;2023-02-15T10:45:35;33.5;;;19.3;;
58306;SDS011;44116;50.884;4.768;2023-02-15T10:47:40;34.6;;;19.5;;
58306;SDS011;44116;50.884;4.768;2023-02-15T10:49:37;35.2;;;19.7;;
58306;SDS011;44116;50.884;4.768;2023-02-15T10:53:42;32.4;;;20.0;;
58306;SDS011;44116;50.884;4.768;2023-02-15T10:55:36;33.9;;;19.8;;
58306;SDS011;44116;50.884;4.768;2023-02-15T10:57:35;34.1;;;19.4;;
58306;SDS011;44116;50.884;4.768;2023-02-15T10:59:41;36.7;;;21.1;;
58306;SDS011;44116;50.884;4.768;2023-02-15T11:01:31;34.4;;;19.2;;
58306;SDS011;44116;50.884;4.768;2023-02-15T11:03:35;35.9;;;20.0;;
58306;SDS011;44116;50.884;4.768;2023-02-15T11:05:37;34.3;;;19.3;;
58306;SDS011;44116;50.884;4.768;2023-02-15T11:07:28;37.1;;;20.9;;
58306;SDS011;44116;50.884;4.768;2023-02-15T11:09:32;36.5;;;21.5;;
58306;SDS011;44116;50.884;4.768;2023-02-15T11:11:28;35.4;;;20.1;;
58306;SDS011;44116;50.884;4.768;2023-02-15T11:13:27;35.1;;;20.0;;
58306;SDS011;44116;50.884;4.768;2023-02-15T11:15:30;34.8;;;19.9;;
58306;SDS011;44116;50.884;4.768;2023-02-15T11:17:27;34.0;;;20.5;;
58306;SDS011;44116;50.884;4.768;2023-02-15T11:19:28;41.4;;;20.9;;
58306;SDS011;44116;50.884;4.768;2023-02-15T11:21:26;35.6;;;20.0;;
58306;SDS011;44116;50.884;4.768;2023-02-15T11:23:24;34.3;;;19.8;;
58306;SDS011;44116;50.884;4.768;2023-02-15T11:25:25;35.1;;;19.6;;
58306;SDS011;44116;50.884;4.768;2023-02-15T11:27:25;35.4;;;20.3;;
58306;SDS011;44116;50.884;4.768;2023-02-15T11:29:25;34.2;;;20.2;;
58306;SDS011;44116;50.884;4.768;2023-02-15T11:31:24;35.3;;;20.1;;
58306;SDS011;44116;50.884;4.768;2023-02-15T11:33:25;38.5;;;20.8;;
58306;SDS011;44116;50.884;4.768;2023-02-15T11:35:26;33.9;;;20.2;;
58306;SDS011;44116;50.884;4.768;2023-02-15T11:37:23;33.4;;;20.1;;
58306;SDS011;44116;50.884;4.768;2023-02-15T11:39:21;35.4;;;20.8;;
58306;SDS011;44116;50.884;4.768;2023-02-15T11:41:22;40.1;;;21.1;;
58306;SDS011;44116;50.884;4.768;2023-02-15T11:43:23;36.2;;;20.8;;
58306;SDS011;44116;50.884;4.768;2023-02-15T11:45:25;38.2;;;21.3;;
58306;SDS011;44116;50.884;4.768;2023-02-15T11:47:18;38.6;;;22.5;;
58306;SDS011;44116;50.884;4.768;2023-02-15T11:49:22;36.2;;;20.9;;
58306;SDS011;44116;50.884;4.768;2023-02-15T11:51:20;35.5;;;19.7;;
58306;SDS011;44116;50.884;4.768;2023-02-15T11:53:20;36.5;;;20.8;;
58306;SDS011;44116;50.884;4.768;2023-02-15T11:55:20;37.4;;;20.9;;
58306;SDS011;44116;50.884;4.768;2023-02-15T11:57:22;35.5;;;21.3;;
58306;SDS011;44116;50.884;4.768;2023-02-15T11:59:27;38.3;;;21.1;;
58306;SDS011;44116;50.884;4.768;2023-02-15T12:01:21;36.2;;;20.4;;
58306;SDS011;44116;50.884;4.768;2023-02-15T12:03:19;40.7;;;21.2;;
58306;SDS011;44116;50.884;4.768;2023-02-15T12:05:18;37.7;;;21.1;;
58306;SDS011;44116;50.884;4.768;2023-02-15T12:09:20;35.0;;;20.4;;
58306;SDS011;44116;50.884;4.768;2023-02-15T12:11:17;36.6;;;21.4;;
58306;SDS011;44116;50.884;4.768;2023-02-15T12:13:16;38.5;;;21.7;;
58306;SDS011;44116;50.884;4.768;2023-02-15T12:15:14;40.7;;;22.7;;
58306;SDS011;44116;50.884;4.768;2023-02-15T12:17:16;42.7;;;22.8;;
58306;SDS011;44116;50.884;4.768;2023-02-15T12:19:27;37.1;;;21.2;;
58306;SDS011;44116;50.884;4.768;2023-02-15T12:21:15;38.9;;;21.5;;
58306;SDS011;44116;50.884;4.768;2023-02-15T12:23:15;37.5;;;21.2;;
58306;SDS011;44116;50.884;4.768;2023-02-15T12:25:21;39.0;;;21.7;;
58306;SDS011;44116;50.884;4.768;2023-02-15T12:29:15;39.3;;;22.4;;
58306;SDS011;44116;50.884;4.768;2023-02-15T12:31:20;38.8;;;21.9;;
58306;SDS011;44116;50.884;4.768;2023-02-15T12:33:15;39.7;;;23.1;;
58306;SDS011;44116;50.884;4.768;2023-02-15T12:35:20;38.3;;;21.7;;